sensor_id;sensor_type;location;lat;lon;timestamp;pressure;altitude;pressure_sealevel;temperature;humidity
37298;BME280;30517;51.932;4.278;2023-04-25T00:01:47;101215.38;;;12.17;56.17
37298;BME280;30517;51.932;4.278;2023-04-25T00:04:27;101170.50;;;11.92;56.52
37298;BME280;30517;51.932;4.278;2023-04-25T00:07:09;101181.97;;;11.98;56.62
37298;BME280;30517;51.932;4.278;2023-04-25T00:09:50;101214.50;;;12.12;56.75
37298;BME280;30517;51.932;4.278;2023-04-25T00:12:31;101203.94;;;12.12;56.76
37298;BME280;30517;51.932;4.278;2023-04-25T00:15:13;101181.09;;;11.94;56.78
37298;BME280;30517;51.932;4.278;2023-04-25T00:17:54;101218.94;;;12.08;56.63
37298;BME280;30517;51.932;4.278;2023-04-25T00:20:35;101175.78;;;11.77;56.87
37298;BME280;30517;51.932;4.278;2023-04-25T00:23:16;101211.91;;;12.06;56.54
37298;BME280;30517;51.932;4.278;2023-04-25T00:25:58;101199.59;;;11.94;56.52
37298;BME280;30517;51.932;4.278;2023-04-25T00:28:39;101216.31;;;12.02;56.28
37298;BME280;30517;51.932;4.278;2023-04-25T00:31:21;101218.09;;;12.02;56.54
37298;BME280;30517;51.932;4.278;2023-04-25T00:34:01;101176.66;;;11.74;56.74
37298;BME280;30517;51.932;4.278;2023-04-25T00:36:42;101210.13;;;11.99;56.51
37298;BME280;30517;51.932;4.278;2023-04-25T00:39:23;101211.06;;;11.91;56.15
37298;BME280;30517;51.932;4.278;2023-04-25T00:42:04;101207.53;;;11.80;56.37
37298;BME280;30517;51.932;4.278;2023-04-25T00:44:46;101231.31;;;11.92;57.08
37298;BME280;30517;51.932;4.278;2023-04-25T00:47:27;101218.09;;;11.83;56.41
37298;BME280;30517;51.932;4.278;2023-04-25T00:50:10;101228.69;;;11.89;56.84
37298;BME280;30517;51.932;4.278;2023-04-25T00:52:51;101201.38;;;11.72;56.24
37298;BME280;30517;51.932;4.278;2023-04-25T00:55:32;101212.81;;;11.71;56.85
37298;BME280;30517;51.932;4.278;2023-04-25T00:58:14;101218.97;;;11.79;56.07
37298;BME280;30517;51.932;4.278;2023-04-25T01:00:55;101240.09;;;11.84;56.40
37298;BME280;30517;51.932;4.278;2023-04-25T01:03:38;101224.25;;;11.74;57.05
37298;BME280;30517;51.932;4.278;2023-04-25T01:06:22;101218.97;;;11.68;56.70
37298;BME280;30517;51.932;4.278;2023-04-25T01:09:03;101153.81;;;11.26;56.53
37298;BME280;30517;51.932;4.278;2023-04-25T01:11:45;101235.72;;;11.78;57.07
37298;BME280;30517;51.932;4.278;2023-04-25T01:14:26;101236.59;;;11.79;56.94
37298;BME280;30517;51.932;4.278;2023-04-25T01:17:08;101154.72;;;11.28;57.07
37298;BME280;30517;51.932;4.278;2023-04-25T01:19:49;101205.78;;;11.55;57.11
37298;BME280;30517;51.932;4.278;2023-04-25T01:22:31;101178.50;;;11.34;57.01
37298;BME280;30517;51.932;4.278;2023-04-25T01:25:13;101190.81;;;11.40;57.69
37298;BME280;30517;51.932;4.278;2023-04-25T01:27:54;101221.63;;;11.42;57.53
37298;BME280;30517;51.932;4.278;2023-04-25T01:30:35;101231.31;;;11.46;57.46
37298;BME280;30517;51.932;4.278;2023-04-25T01:33:16;101224.28;;;11.35;57.45
37298;BME280;30517;51.932;4.278;2023-04-25T01:35:57;101250.69;;;11.51;57.58
37298;BME280;30517;51.932;4.278;2023-04-25T01:38:38;101246.28;;;11.41;57.67
37298;BME280;30517;51.932;4.278;2023-04-25T01:41:20;101240.13;;;11.41;57.43
37298;BME280;30517;51.932;4.278;2023-04-25T01:44:03;101184.63;;;11.02;57.38
37298;BME280;30517;51.932;4.278;2023-04-25T01:46:44;101226.03;;;11.26;57.41
37298;BME280;30517;51.932;4.278;2023-04-25T01:49:25;101179.31;;;10.90;57.51
37298;BME280;30517;51.932;4.278;2023-04-25T01:52:06;101248.88;;;11.23;57.23
37298;BME280;30517;51.932;4.278;2023-04-25T01:54:47;101244.50;;;11.26;57.71
37298;BME280;30517;51.932;4.278;2023-04-25T01:57:28;101241.84;;;11.19;57.84
37298;BME280;30517;51.932;4.278;2023-04-25T02:00:09;101249.78;;;11.23;58.07
37298;BME280;30517;51.932;4.278;2023-04-25T02:02:50;101261.22;;;11.33;57.50
37298;BME280;30517;51.932;4.278;2023-04-25T02:05:37;101266.53;;;11.32;58.30
37298;BME280;30517;51.932;4.278;2023-04-25T02:08:18;101213.63;;;10.93;58.23
37298;BME280;30517;51.932;4.278;2023-04-25T02:11:00;101274.41;;;11.28;58.24
37298;BME280;30517;51.932;4.278;2023-04-25T02:13:40;101252.44;;;11.23;57.88
37298;BME280;30517;51.932;4.278;2023-04-25T02:16:21;101267.38;;;11.26;57.77
37298;BME280;30517;51.932;4.278;2023-04-25T02:19:02;101269.16;;;11.27;57.82
37298;BME280;30517;51.932;4.278;2023-04-25T02:21:43;101180.19;;;10.72;57.80
37298;BME280;30517;51.932;4.278;2023-04-25T02:24:24;101149.38;;;10.56;58.29
37298;BME280;30517;51.932;4.278;2023-04-25T02:27:05;101270.88;;;11.20;57.91
37298;BME280;30517;51.932;4.278;2023-04-25T02:29:46;101116.75;;;10.28;57.97
37298;BME280;30517;51.932;4.278;2023-04-25T02:32:26;101271.78;;;11.19;58.04
37298;BME280;30517;51.932;4.278;2023-04-25T02:35:07;101272.66;;;11.17;58.11
37298;BME280;30517;51.932;4.278;2023-04-25T02:37:48;101165.16;;;10.54;58.13
37298;BME280;30517;51.932;4.278;2023-04-25T02:40:29;101219.78;;;10.86;58.23
37298;BME280;30517;51.932;4.278;2023-04-25T02:43:10;101108.72;;;10.09;58.11
37298;BME280;30517;51.932;4.278;2023-04-25T02:45:51;101273.50;;;11.08;58.67
37298;BME280;30517;51.932;4.278;2023-04-25T02:48:32;101196.88;;;10.67;58.28
37298;BME280;30517;51.932;4.278;2023-04-25T02:51:12;101131.69;;;10.30;58.68
37298;BME280;30517;51.932;4.278;2023-04-25T02:53:54;101259.41;;;11.03;58.41
37298;BME280;30517;51.932;4.278;2023-04-25T02:56:34;101260.28;;;10.99;58.73
37298;BME280;30517;51.932;4.278;2023-04-25T02:59:15;101206.56;;;10.74;58.37
37298;BME280;30517;51.932;4.278;2023-04-25T03:01:56;101227.69;;;10.88;58.53
37298;BME280;30517;51.932;4.278;2023-04-25T03:04:37;101231.22;;;10.87;58.35
37298;BME280;30517;51.932;4.278;2023-04-25T03:07:18;101166.03;;;10.46;58.13
37298;BME280;30517;51.932;4.278;2023-04-25T03:09:59;101114.06;;;10.18;58.20
37298;BME280;30517;51.932;4.278;2023-04-25T03:12:39;101265.56;;;11.06;58.66
37298;BME280;30517;51.932;4.278;2023-04-25T03:15:20;101235.63;;;10.86;58.16
37298;BME280;30517;51.932;4.278;2023-04-25T03:18:01;101265.56;;;11.06;58.41
37298;BME280;30517;51.932;4.278;2023-04-25T03:20:42;101264.72;;;11.07;58.13
37298;BME280;30517;51.932;4.278;2023-04-25T03:23:23;101272.63;;;11.06;57.87
37298;BME280;30517;51.932;4.278;2023-04-25T03:26:04;101269.97;;;11.01;58.50
37298;BME280;30517;51.932;4.278;2023-04-25T03:28:45;101269.09;;;11.04;58.38
37298;BME280;30517;51.932;4.278;2023-04-25T03:31:26;101249.66;;;10.74;57.96
37298;BME280;30517;51.932;4.278;2023-04-25T03:34:07;101262.91;;;10.93;57.90
37298;BME280;30517;51.932;4.278;2023-04-25T03:36:48;101240.91;;;10.86;58.01
37298;BME280;30517;51.932;4.278;2023-04-25T03:39:28;101276.13;;;10.97;58.49
37298;BME280;30517;51.932;4.278;2023-04-25T03:42:09;101267.31;;;10.95;58.29
37298;BME280;30517;51.932;4.278;2023-04-25T03:44:51;101301.66;;;11.00;58.44
37298;BME280;30517;51.932;4.278;2023-04-25T03:47:32;101306.03;;;11.01;58.19
37298;BME280;30517;51.932;4.278;2023-04-25T03:50:13;101249.63;;;10.62;57.97
37298;BME280;30517;51.932;4.278;2023-04-25T03:52:54;101232.81;;;10.45;57.82
37298;BME280;30517;51.932;4.278;2023-04-25T03:55:35;101325.38;;;10.98;58.38
37298;BME280;30517;51.932;4.278;2023-04-25T03:58:16;101318.34;;;10.99;57.99
37298;BME280;30517;51.932;4.278;2023-04-25T04:00:56;101336.81;;;10.99;58.31
37298;BME280;30517;51.932;4.278;2023-04-25T04:03:37;101315.72;;;10.99;57.65
37298;BME280;30517;51.932;4.278;2023-04-25T04:06:18;101040.78;;;9.41;57.86
37298;BME280;30517;51.932;4.278;2023-04-25T04:09:00;101302.53;;;11.00;57.68
37298;BME280;30517;51.932;4.278;2023-04-25T04:11:41;101276.94;;;10.79;57.75
37298;BME280;30517;51.932;4.278;2023-04-25T04:14:22;101302.53;;;10.97;57.67
37298;BME280;30517;51.932;4.278;2023-04-25T04:17:03;101301.63;;;10.95;58.35
37298;BME280;30517;51.932;4.278;2023-04-25T04:19:44;101296.31;;;10.86;58.19
37298;BME280;30517;51.932;4.278;2023-04-25T04:22:25;101302.50;;;10.93;58.25
37298;BME280;30517;51.932;4.278;2023-04-25T04:25:06;101298.09;;;10.87;58.04
37298;BME280;30517;51.932;4.278;2023-04-25T04:27:47;101317.47;;;10.95;57.93
37298;BME280;30517;51.932;4.278;2023-04-25T04:30:28;101326.25;;;10.93;57.70
37298;BME280;30517;51.932;4.278;2023-04-25T04:33:09;101291.00;;;10.75;58.15
37298;BME280;30517;51.932;4.278;2023-04-25T04:35:51;101318.34;;;10.94;58.28
37298;BME280;30517;51.932;4.278;2023-04-25T04:38:33;101301.59;;;10.86;58.00
37298;BME280;30517;51.932;4.278;2023-04-25T04:41:14;101312.19;;;10.94;57.91
37298;BME280;30517;51.932;4.278;2023-04-25T04:43:56;101319.19;;;10.90;58.08
37298;BME280;30517;51.932;4.278;2023-04-25T04:46:37;101312.13;;;10.75;58.45
37298;BME280;30517;51.932;4.278;2023-04-25T04:49:21;101285.69;;;10.61;57.89
37298;BME280;30517;51.932;4.278;2023-04-25T04:52:02;101311.25;;;10.79;57.36
37298;BME280;30517;51.932;4.278;2023-04-25T04:54:43;101355.31;;;10.94;57.18
37298;BME280;30517;51.932;4.278;2023-04-25T04:57:24;101258.38;;;10.53;56.96
37298;BME280;30517;51.932;4.278;2023-04-25T05:00:06;101324.44;;;10.79;57.44
37298;BME280;30517;51.932;4.278;2023-04-25T05:02:51;101343.81;;;10.88;57.18
37298;BME280;30517;51.932;4.278;2023-04-25T05:05:31;101225.59;;;10.14;57.63
37298;BME280;30517;51.932;4.278;2023-04-25T05:08:12;101355.22;;;10.82;57.40
37298;BME280;30517;51.932;4.278;2023-04-25T05:10:53;101312.03;;;10.60;57.54
37298;BME280;30517;51.932;4.278;2023-04-25T05:13:34;101327.03;;;10.64;58.04
37298;BME280;30517;51.932;4.278;2023-04-25T05:16:15;101362.25;;;10.80;57.79
37298;BME280;30517;51.932;4.278;2023-04-25T05:18:56;101092.25;;;8.99;57.64
37298;BME280;30517;51.932;4.278;2023-04-25T05:21:37;101349.00;;;10.61;57.64
37298;BME280;30517;51.932;4.278;2023-04-25T05:24:18;101400.06;;;10.76;57.52
37298;BME280;30517;51.932;4.278;2023-04-25T05:26:59;101331.31;;;10.45;57.92
37298;BME280;30517;51.932;4.278;2023-04-25T05:29:40;101387.72;;;10.70;58.04
37298;BME280;30517;51.932;4.278;2023-04-25T05:32:21;101397.41;;;10.73;57.81
37298;BME280;30517;51.932;4.278;2023-04-25T05:35:02;101338.28;;;10.37;57.48
37298;BME280;30517;51.932;4.278;2023-04-25T05:37:43;101383.28;;;10.61;57.93
37298;BME280;30517;51.932;4.278;2023-04-25T05:40:24;101389.41;;;10.59;58.14
37298;BME280;30517;51.932;4.278;2023-04-25T05:43:05;101411.44;;;10.66;57.65
37298;BME280;30517;51.932;4.278;2023-04-25T05:45:46;101412.31;;;10.66;57.47
37298;BME280;30517;51.932;4.278;2023-04-25T05:48:27;101403.44;;;10.52;57.87
37298;BME280;30517;51.932;4.278;2023-04-25T05:51:08;101414.03;;;10.61;58.01
37298;BME280;30517;51.932;4.278;2023-04-25T05:53:48;101375.22;;;10.41;57.93
37298;BME280;30517;51.932;4.278;2023-04-25T05:56:29;101387.53;;;10.41;57.75
37298;BME280;30517;51.932;4.278;2023-04-25T05:59:10;101361.94;;;10.28;57.88
37298;BME280;30517;51.932;4.278;2023-04-25T06:01:51;101393.72;;;10.46;58.09
37298;BME280;30517;51.932;4.278;2023-04-25T06:04:31;101417.53;;;10.54;57.60
37298;BME280;30517;51.932;4.278;2023-04-25T06:07:13;101437.81;;;10.62;57.80
37298;BME280;30517;51.932;4.278;2023-04-25T06:09:53;101383.88;;;10.24;57.75
37298;BME280;30517;51.932;4.278;2023-04-25T06:12:34;101374.06;;;10.07;58.05
37298;BME280;30517;51.932;4.278;2023-04-25T06:15:15;101362.56;;;9.97;57.96
37298;BME280;30517;51.932;4.278;2023-04-25T06:17:56;101475.47;;;10.45;58.12
37298;BME280;30517;51.932;4.278;2023-04-25T06:20:37;101451.63;;;10.34;57.86
37298;BME280;30517;51.932;4.278;2023-04-25T06:23:17;101443.78;;;10.38;57.99
37298;BME280;30517;51.932;4.278;2023-04-25T06:25:58;101385.56;;;10.17;58.10
37298;BME280;30517;51.932;4.278;2023-04-25T06:28:39;101339.59;;;9.84;58.02
37298;BME280;30517;51.932;4.278;2023-04-25T06:31:20;101401.28;;;10.05;58.63
37298;BME280;30517;51.932;4.278;2023-04-25T06:34:01;101457.00;;;10.45;58.22
37298;BME280;30517;51.932;4.278;2023-04-25T06:36:42;101375.75;;;9.99;58.18
37298;BME280;30517;51.932;4.278;2023-04-25T06:39:24;101422.63;;;10.29;58.51
37298;BME280;30517;51.932;4.278;2023-04-25T06:42:05;101427.03;;;10.32;58.43
37298;BME280;30517;51.932;4.278;2023-04-25T06:44:46;101426.91;;;10.26;58.03
37298;BME280;30517;51.932;4.278;2023-04-25T06:47:27;101428.78;;;10.33;58.29
37298;BME280;30517;51.932;4.278;2023-04-25T06:50:08;101470.28;;;10.55;58.06
37298;BME280;30517;51.932;4.278;2023-04-25T06:52:49;101447.28;;;10.37;58.14
37298;BME280;30517;51.932;4.278;2023-04-25T06:55:30;101464.91;;;10.45;57.99
37298;BME280;30517;51.932;4.278;2023-04-25T06:58:11;101366.75;;;9.77;58.09
37298;BME280;30517;51.932;4.278;2023-04-25T07:00:51;101427.81;;;10.25;58.29
37298;BME280;30517;51.932;4.278;2023-04-25T07:03:32;101404.78;;;10.05;58.00
37298;BME280;30517;51.932;4.278;2023-04-25T07:06:13;101489.56;;;10.45;57.96
37298;BME280;30517;51.932;4.278;2023-04-25T07:08:54;101467.28;;;10.15;58.18
37298;BME280;30517;51.932;4.278;2023-04-25T07:11:36;101461.31;;;10.33;57.82
37298;BME280;30517;51.932;4.278;2023-04-25T07:14:17;101482.53;;;10.46;58.20
37298;BME280;30517;51.932;4.278;2023-04-25T07:16:58;101412.69;;;10.02;58.15
37298;BME280;30517;51.932;4.278;2023-04-25T07:19:38;101469.28;;;10.41;58.08
37298;BME280;30517;51.932;4.278;2023-04-25T07:22:20;101513.34;;;10.51;58.14
37298;BME280;30517;51.932;4.278;2023-04-25T07:25:04;101410.03;;;10.01;58.12
37298;BME280;30517;51.932;4.278;2023-04-25T07:27:46;101504.44;;;10.40;58.15
37298;BME280;30517;51.932;4.278;2023-04-25T07:30:27;101445.31;;;10.16;58.28
37298;BME280;30517;51.932;4.278;2023-04-25T07:33:08;101531.84;;;10.56;57.95
37298;BME280;30517;51.932;4.278;2023-04-25T07:35:49;101498.31;;;10.43;58.27
37298;BME280;30517;51.932;4.278;2023-04-25T07:38:31;101515.97;;;10.53;58.06
37298;BME280;30517;51.932;4.278;2023-04-25T07:41:15;101446.13;;;10.09;58.27
37298;BME280;30517;51.932;4.278;2023-04-25T07:43:56;101515.97;;;10.51;58.05
37298;BME280;30517;51.932;4.278;2023-04-25T07:46:36;101488.59;;;10.37;58.11
37298;BME280;30517;51.932;4.278;2023-04-25T07:49:17;101518.63;;;10.54;58.01
37298;BME280;30517;51.932;4.278;2023-04-25T07:51:58;101538.84;;;10.55;58.10
37298;BME280;30517;51.932;4.278;2023-04-25T07:54:39;101533.56;;;10.52;58.21
37298;BME280;30517;51.932;4.278;2023-04-25T07:57:24;101522.94;;;10.45;57.79
37298;BME280;30517;51.932;4.278;2023-04-25T08:00:05;101472.53;;;10.14;57.85
37298;BME280;30517;51.932;4.278;2023-04-25T08:02:49;101474.28;;;10.13;57.95
37298;BME280;30517;51.932;4.278;2023-04-25T08:05:31;101552.91;;;10.53;58.18
37298;BME280;30517;51.932;4.278;2023-04-25T08:08:12;101453.88;;;9.92;58.20
37298;BME280;30517;51.932;4.278;2023-04-25T08:10:53;101498.91;;;10.15;58.16
37298;BME280;30517;51.932;4.278;2023-04-25T08:13:34;101447.69;;;9.89;58.31
37298;BME280;30517;51.932;4.278;2023-04-25T08:16:15;101572.16;;;10.44;58.22
37298;BME280;30517;51.932;4.278;2023-04-25T08:18:56;101403.34;;;9.49;57.94
37298;BME280;30517;51.932;4.278;2023-04-25T08:21:36;101450.09;;;9.69;58.02
37298;BME280;30517;51.932;4.278;2023-04-25T08:24:17;101603.09;;;10.60;57.93
37298;BME280;30517;51.932;4.278;2023-04-25T08:26:58;101539.47;;;10.28;57.54
37298;BME280;30517;51.932;4.278;2023-04-25T08:29:39;101594.38;;;10.65;57.98
37298;BME280;30517;51.932;4.278;2023-04-25T08:32:20;101518.25;;;10.16;58.31
37298;BME280;30517;51.932;4.278;2023-04-25T08:35:01;101512.91;;;10.11;58.00
37298;BME280;30517;51.932;4.278;2023-04-25T08:37:42;101568.63;;;10.40;58.08
37298;BME280;30517;51.932;4.278;2023-04-25T08:40:26;101555.28;;;10.27;57.97
37298;BME280;30517;51.932;4.278;2023-04-25T08:43:13;101657.69;;;10.65;57.96
37298;BME280;30517;51.932;4.278;2023-04-25T08:45:58;101626.03;;;10.68;57.87
37298;BME280;30517;51.932;4.278;2023-04-25T08:48:40;101632.25;;;10.73;58.09
37298;BME280;30517;51.932;4.278;2023-04-25T08:51:22;101629.63;;;10.73;57.87
37298;BME280;30517;51.932;4.278;2023-04-25T08:54:11;101561.59;;;10.41;57.53
37298;BME280;30517;51.932;4.278;2023-04-25T08:56:54;101602.13;;;10.48;57.59
37298;BME280;30517;51.932;4.278;2023-04-25T08:59:36;101636.63;;;10.71;57.86
37298;BME280;30517;51.932;4.278;2023-04-25T09:02:19;101571.94;;;10.26;57.81
37298;BME280;30517;51.932;4.278;2023-04-25T09:05:02;101629.09;;;10.27;57.99
37298;BME280;30517;51.932;4.278;2023-04-25T09:11:21;101643.63;;;10.69;57.87
37298;BME280;30517;51.932;4.278;2023-04-25T09:14:15;101654.28;;;10.76;57.70
37298;BME280;30517;51.932;4.278;2023-04-25T09:19:37;101651.63;;;10.75;57.58
37298;BME280;30517;51.932;4.278;2023-04-25T09:22:20;101671.91;;;10.79;57.61
37298;BME280;30517;51.932;4.278;2023-04-25T09:25:09;101668.34;;;10.77;57.97
37298;BME280;30517;51.932;4.278;2023-04-25T09:27:52;101672.75;;;10.76;57.94
37298;BME280;30517;51.932;4.278;2023-04-25T09:30:35;101679.78;;;10.76;58.04
37298;BME280;30517;51.932;4.278;2023-04-25T09:33:16;101671.00;;;10.77;57.86
37298;BME280;30517;51.932;4.278;2023-04-25T09:36:08;101667.34;;;10.64;58.12
37298;BME280;30517;51.932;4.278;2023-04-25T09:38:51;101694.72;;;10.77;57.95
37298;BME280;30517;51.932;4.278;2023-04-25T09:41:32;101687.72;;;10.79;57.88
37298;BME280;30517;51.932;4.278;2023-04-25T09:44:23;101655.91;;;10.63;57.95
37298;BME280;30517;51.932;4.278;2023-04-25T09:47:09;101663.88;;;10.67;58.00
37298;BME280;30517;51.932;4.278;2023-04-25T09:49:51;101666.56;;;10.73;57.73
37298;BME280;30517;51.932;4.278;2023-04-25T09:52:32;101685.16;;;10.87;57.79
37298;BME280;30517;51.932;4.278;2023-04-25T09:55:13;101701.91;;;10.90;57.83
37298;BME280;30517;51.932;4.278;2023-04-25T09:57:55;101679.81;;;10.79;57.60
37298;BME280;30517;51.932;4.278;2023-04-25T10:00:38;101701.94;;;10.93;57.67
37298;BME280;30517;51.932;4.278;2023-04-25T10:03:20;101648.03;;;10.68;57.92
37298;BME280;30517;51.932;4.278;2023-04-25T10:06:03;101697.59;;;10.97;57.49
37298;BME280;30517;51.932;4.278;2023-04-25T10:08:45;101663.03;;;10.74;57.35
37298;BME280;30517;51.932;4.278;2023-04-25T10:11:27;101716.09;;;11.01;57.90
37298;BME280;30517;51.932;4.278;2023-04-25T10:14:08;101678.03;;;10.75;57.96
37298;BME280;30517;51.932;4.278;2023-04-25T10:16:49;101699.31;;;10.92;57.33
37298;BME280;30517;51.932;4.278;2023-04-25T10:19:33;101717.94;;;11.08;57.50
37298;BME280;30517;51.932;4.278;2023-04-25T10:22:26;101722.31;;;11.06;57.45
37298;BME280;30517;51.932;4.278;2023-04-25T10:25:11;101725.06;;;11.16;57.02
37298;BME280;30517;51.932;4.278;2023-04-25T10:27:53;101736.50;;;11.16;57.00
37298;BME280;30517;51.932;4.278;2023-04-25T10:30:34;101708.19;;;11.01;56.99
37298;BME280;30517;51.932;4.278;2023-04-25T10:33:32;101681.72;;;10.94;56.93
37298;BME280;30517;51.932;4.278;2023-04-25T10:36:17;101721.59;;;11.26;56.87
37298;BME280;30517;51.932;4.278;2023-04-25T10:39:03;101725.06;;;11.20;56.77
37298;BME280;30517;51.932;4.278;2023-04-25T10:41:52;101738.38;;;11.29;56.89
37298;BME280;30517;51.932;4.278;2023-04-25T10:44:34;101726.97;;;11.32;56.93
37298;BME280;30517;51.932;4.278;2023-04-25T10:47:38;101638.50;;;10.81;56.76
37298;BME280;30517;51.932;4.278;2023-04-25T10:50:37;101713.81;;;11.38;56.45
37298;BME280;30517;51.932;4.278;2023-04-25T10:53:18;101744.66;;;11.42;56.48
37298;BME280;30517;51.932;4.278;2023-04-25T10:55:59;101715.53;;;11.32;56.43
37298;BME280;30517;51.932;4.278;2023-04-25T10:58:44;101700.44;;;11.18;56.59
37298;BME280;30517;51.932;4.278;2023-04-25T11:01:25;101719.16;;;11.47;56.70
37298;BME280;30517;51.932;4.278;2023-04-25T11:04:19;101698.72;;;11.23;56.79
37298;BME280;30517;51.932;4.278;2023-04-25T11:07:10;101741.22;;;11.52;56.59
37298;BME280;30517;51.932;4.278;2023-04-25T11:09:54;101726.22;;;11.50;56.46
37298;BME280;30517;51.932;4.278;2023-04-25T11:12:35;101732.44;;;11.54;56.78
37298;BME280;30517;51.932;4.278;2023-04-25T11:15:16;101736.75;;;11.47;56.97
37298;BME280;30517;51.932;4.278;2023-04-25T11:17:57;101751.84;;;11.59;56.33
37298;BME280;30517;51.932;4.278;2023-04-25T11:20:37;101712.91;;;11.39;56.55
37298;BME280;30517;51.932;4.278;2023-04-25T11:23:18;101756.28;;;11.63;56.13
37298;BME280;30517;51.932;4.278;2023-04-25T11:25:59;101753.63;;;11.63;56.72
37298;BME280;30517;51.932;4.278;2023-04-25T11:28:44;101754.56;;;11.68;56.53
37298;BME280;30517;51.932;4.278;2023-04-25T11:31:26;101701.47;;;11.39;56.30
37298;BME280;30517;51.932;4.278;2023-04-25T11:34:06;101752.78;;;11.67;56.18
37298;BME280;30517;51.932;4.278;2023-04-25T11:36:47;101737.78;;;11.66;56.38
37298;BME280;30517;51.932;4.278;2023-04-25T11:39:28;101755.53;;;11.78;56.62
37298;BME280;30517;51.932;4.278;2023-04-25T11:42:09;101755.50;;;11.79;56.28
37298;BME280;30517;51.932;4.278;2023-04-25T11:44:51;101745.81;;;11.77;55.36
37298;BME280;30517;51.932;4.278;2023-04-25T11:47:33;101728.06;;;11.59;56.13
37298;BME280;30517;51.932;4.278;2023-04-25T11:50:14;101757.25;;;11.77;55.45
37298;BME280;30517;51.932;4.278;2023-04-25T11:52:56;101767.09;;;11.92;55.76
37298;BME280;30517;51.932;4.278;2023-04-25T11:55:37;101771.41;;;11.85;55.27
37298;BME280;30517;51.932;4.278;2023-04-25T11:58:18;101747.59;;;11.78;55.71
37298;BME280;30517;51.932;4.278;2023-04-25T12:00:59;101740.50;;;11.77;56.29
37298;BME280;30517;51.932;4.278;2023-04-25T12:03:46;101769.72;;;11.89;56.47
37298;BME280;30517;51.932;4.278;2023-04-25T12:06:28;101766.22;;;11.91;56.03
37298;BME280;30517;51.932;4.278;2023-04-25T12:09:10;101766.25;;;11.94;55.86
37298;BME280;30517;51.932;4.278;2023-04-25T12:11:55;101755.66;;;11.91;55.80
37298;BME280;30517;51.932;4.278;2023-04-25T12:14:36;101785.72;;;12.12;56.15
37298;BME280;30517;51.932;4.278;2023-04-25T12:17:17;101776.00;;;12.06;56.26
37298;BME280;30517;51.932;4.278;2023-04-25T12:19:58;101781.34;;;12.12;55.56
37298;BME280;30517;51.932;4.278;2023-04-25T12:22:41;101748.66;;;12.00;55.75
37298;BME280;30517;51.932;4.278;2023-04-25T12:25:43;101768.97;;;12.08;56.03
37298;BME280;30517;51.932;4.278;2023-04-25T12:28:25;101792.00;;;12.28;55.53
37298;BME280;30517;51.932;4.278;2023-04-25T12:31:11;101764.59;;;12.15;55.94
37298;BME280;30517;51.932;4.278;2023-04-25T12:33:54;101806.16;;;12.34;55.48
37298;BME280;30517;51.932;4.278;2023-04-25T12:36:35;101785.84;;;12.27;56.00
37298;BME280;30517;51.932;4.278;2023-04-25T12:39:22;101805.31;;;12.42;55.85
37298;BME280;30517;51.932;4.278;2023-04-25T12:42:03;101789.41;;;12.35;56.03
37298;BME280;30517;51.932;4.278;2023-04-25T12:44:44;101790.28;;;12.36;55.58
37298;BME280;30517;51.932;4.278;2023-04-25T12:47:26;101796.50;;;12.43;55.94
37298;BME280;30517;51.932;4.278;2023-04-25T12:50:07;101805.38;;;12.54;55.65
37298;BME280;30517;51.932;4.278;2023-04-25T12:52:48;101781.53;;;12.46;55.17
37298;BME280;30517;51.932;4.278;2023-04-25T12:55:29;101815.09;;;12.56;55.57
37298;BME280;30517;51.932;4.278;2023-04-25T12:58:10;101755.00;;;12.32;55.36
37298;BME280;30517;51.932;4.278;2023-04-25T13:00:51;101809.00;;;12.74;55.61
37298;BME280;30517;51.932;4.278;2023-04-25T13:03:32;101816.97;;;12.80;55.52
37298;BME280;30517;51.932;4.278;2023-04-25T13:06:15;101774.53;;;12.60;55.27
37298;BME280;30517;51.932;4.278;2023-04-25T13:08:56;101754.22;;;12.58;55.13
37298;BME280;30517;51.932;4.278;2023-04-25T13:11:37;101822.31;;;12.93;55.52
37298;BME280;30517;51.932;4.278;2023-04-25T13:14:18;101798.47;;;12.87;55.50
37298;BME280;30517;51.932;4.278;2023-04-25T13:16:58;101812.63;;;13.01;55.61
37298;BME280;30517;51.932;4.278;2023-04-25T13:19:39;101784.34;;;12.91;55.56
37298;BME280;30517;51.932;4.278;2023-04-25T13:22:20;101756.06;;;12.77;55.37
37298;BME280;30517;51.932;4.278;2023-04-25T13:25:01;101785.28;;;12.99;55.06
37298;BME280;30517;51.932;4.278;2023-04-25T13:27:42;101792.34;;;13.03;55.05
37298;BME280;30517;51.932;4.278;2023-04-25T13:30:24;101833.88;;;13.22;54.66
37298;BME280;30517;51.932;4.278;2023-04-25T13:33:05;101814.47;;;13.23;54.86
37298;BME280;30517;51.932;4.278;2023-04-25T13:35:48;101805.59;;;13.17;55.01
37298;BME280;30517;51.932;4.278;2023-04-25T13:38:33;101800.31;;;13.18;54.66
37298;BME280;30517;51.932;4.278;2023-04-25T13:41:14;101833.94;;;13.35;54.69
37298;BME280;30517;51.932;4.278;2023-04-25T13:43:58;101800.31;;;13.20;54.80
37298;BME280;30517;51.932;4.278;2023-04-25T13:46:40;101818.06;;;13.38;54.51
37298;BME280;30517;51.932;4.278;2023-04-25T13:49:21;101826.88;;;13.41;54.07
37298;BME280;30517;51.932;4.278;2023-04-25T13:52:03;101795.06;;;13.34;54.23
37298;BME280;30517;51.932;4.278;2023-04-25T13:54:43;101833.09;;;13.54;54.29
37298;BME280;30517;51.932;4.278;2023-04-25T13:57:24;101830.44;;;13.57;54.01
37298;BME280;30517;51.932;4.278;2023-04-25T14:00:06;101833.06;;;13.53;54.52
37298;BME280;30517;51.932;4.278;2023-04-25T14:02:48;101830.44;;;13.60;54.32
37298;BME280;30517;51.932;4.278;2023-04-25T14:05:29;101839.28;;;13.68;53.97
37298;BME280;30517;51.932;4.278;2023-04-25T14:08:11;101829.59;;;13.72;54.29
37298;BME280;30517;51.932;4.278;2023-04-25T14:10:51;101801.28;;;13.62;53.92
37298;BME280;30517;51.932;4.278;2023-04-25T14:13:32;101841.06;;;13.79;54.30